createdAt,value
2017-10-16T00:00:54.398Z,3.13
2017-10-16T00:03:23.447Z,3.17
2017-10-16T00:05:52.480Z,3.57
2017-10-16T00:08:21.526Z,2.87
2017-10-16T00:10:50.567Z,2.57
2017-10-16T00:13:19.662Z,3.00
2017-10-16T00:15:48.837Z,2.97
2017-10-16T00:18:17.854Z,2.80
2017-10-16T00:20:46.880Z,3.00
2017-10-16T00:23:15.937Z,3.33
2017-10-16T00:25:44.943Z,3.27
2017-10-16T00:28:13.985Z,4.00
2017-10-16T00:30:43.033Z,3.97
2017-10-16T00:33:12.074Z,3.87
2017-10-16T00:35:41.225Z,3.60
2017-10-16T00:38:10.222Z,3.40
2017-10-16T00:40:39.320Z,3.83
2017-10-16T00:43:08.322Z,3.63
2017-10-16T00:45:37.378Z,3.30
2017-10-16T00:48:06.408Z,4.10
2017-10-16T00:50:35.458Z,2.97
2017-10-16T00:53:04.511Z,3.33
2017-10-16T00:55:33.547Z,3.43
2017-10-16T00:58:02.614Z,2.87
2017-10-16T01:00:31.638Z,3.20
2017-10-16T01:03:00.673Z,3.17
2017-10-16T01:05:29.740Z,2.70
2017-10-16T01:07:58.813Z,2.90
2017-10-16T01:10:27.847Z,3.27
2017-10-16T01:12:56.902Z,3.37
2017-10-16T01:15:25.938Z,2.63
2017-10-16T01:17:54.985Z,3.50
2017-10-16T01:20:24.023Z,3.43
2017-10-16T01:22:53.058Z,3.10
2017-10-16T01:25:22.142Z,3.30
2017-10-16T01:27:51.205Z,3.40
2017-10-16T01:30:20.230Z,3.30
2017-10-16T01:32:49.311Z,3.63
2017-10-16T01:35:18.347Z,2.97
2017-10-16T01:37:47.388Z,3.30
2017-10-16T01:40:18.437Z,3.27
2017-10-16T01:42:47.534Z,2.83
2017-10-16T01:45:16.576Z,2.73
2017-10-16T01:47:45.620Z,2.77
2017-10-16T01:50:14.653Z,2.90
2017-10-16T01:52:47.409Z,3.20
2017-10-16T01:55:16.447Z,2.53
2017-10-16T01:57:45.480Z,2.93
2017-10-16T02:00:14.533Z,2.90
2017-10-16T02:02:43.566Z,2.77
2017-10-16T02:05:17.069Z,2.60
2017-10-16T02:07:46.138Z,2.93
2017-10-16T02:10:15.223Z,3.00
2017-10-16T02:12:44.298Z,3.00
2017-10-16T02:15:13.340Z,2.87
2017-10-16T02:17:42.359Z,3.10
2017-10-16T02:20:11.404Z,3.00
2017-10-16T02:22:40.440Z,2.60
2017-10-16T02:25:09.486Z,2.83
2017-10-16T02:27:38.529Z,2.47
2017-10-16T02:30:07.560Z,2.30
2017-10-16T02:32:36.616Z,2.40
2017-10-16T02:35:05.665Z,3.03
2017-10-16T02:37:34.684Z,2.37
2017-10-16T02:40:03.723Z,2.40
2017-10-16T02:42:32.764Z,2.30
2017-10-16T02:45:01.842Z,1.90
2017-10-16T02:47:30.896Z,2.10
2017-10-16T02:49:59.929Z,2.60
2017-10-16T02:52:28.974Z,2.30
2017-10-16T02:54:58.010Z,2.40
2017-10-16T02:57:27.060Z,2.37
2017-10-16T02:59:56.106Z,2.30
2017-10-16T03:02:25.137Z,2.80
2017-10-16T03:04:54.175Z,1.90
2017-10-16T03:07:23.237Z,2.57
2017-10-16T03:09:52.314Z,1.90
2017-10-16T03:12:21.362Z,2.20
2017-10-16T03:14:50.409Z,2.20
2017-10-16T03:17:19.462Z,2.50
2017-10-16T03:19:48.488Z,2.30
2017-10-16T03:22:17.542Z,1.97
2017-10-16T03:24:46.574Z,1.80
2017-10-16T03:27:15.614Z,2.10
2017-10-16T03:29:44.658Z,2.90
2017-10-16T03:32:13.696Z,2.10
2017-10-16T03:34:42.850Z,2.33
2017-10-16T03:37:11.907Z,1.93
2017-10-16T03:39:40.944Z,2.20
2017-10-16T03:42:09.998Z,2.10
2017-10-16T03:44:39.039Z,2.17
2017-10-16T03:47:08.082Z,2.37
2017-10-16T03:49:37.108Z,1.70
2017-10-16T03:52:06.142Z,2.57
2017-10-16T03:54:35.202Z,2.40
2017-10-16T03:57:04.247Z,2.20
2017-10-16T03:59:33.272Z,1.80
2017-10-16T04:02:02.322Z,1.90
2017-10-16T04:04:31.403Z,1.90
2017-10-16T04:07:00.415Z,2.40
2017-10-16T04:09:29.451Z,1.97
2017-10-16T04:11:58.490Z,2.23
2017-10-16T04:14:27.730Z,2.20
2017-10-16T04:16:56.831Z,2.47
2017-10-16T04:19:27.264Z,2.33
2017-10-16T04:21:56.283Z,2.50
2017-10-16T04:24:25.345Z,2.57
2017-10-16T04:26:54.383Z,2.70
2017-10-16T04:29:23.418Z,2.43
2017-10-16T04:31:52.453Z,2.70
2017-10-16T04:34:21.496Z,3.03
2017-10-16T04:36:50.737Z,3.23
2017-10-16T04:39:19.766Z,2.97
2017-10-16T04:41:48.795Z,2.67
2017-10-16T04:44:17.859Z,3.00
2017-10-16T04:46:46.944Z,2.93
2017-10-16T04:49:15.991Z,2.77
2017-10-16T04:51:45.061Z,3.90
2017-10-16T04:54:15.104Z,3.03
2017-10-16T04:56:44.523Z,4.43
2017-10-16T04:59:13.549Z,4.13
2017-10-16T05:01:42.578Z,3.83
2017-10-16T05:04:11.619Z,3.37
2017-10-16T05:06:41.612Z,3.20
2017-10-16T05:09:10.691Z,3.70
2017-10-16T05:11:40.730Z,2.87
2017-10-16T05:14:09.767Z,3.07
2017-10-16T05:16:38.798Z,3.50
2017-10-16T05:19:07.854Z,3.77
2017-10-16T05:21:36.904Z,2.90
2017-10-16T05:24:05.974Z,3.43
2017-10-16T05:26:35.186Z,3.87
2017-10-16T05:29:04.281Z,4.03
2017-10-16T05:31:33.317Z,4.43
2017-10-16T05:34:02.348Z,4.97
2017-10-16T05:36:31.512Z,4.60
2017-10-16T05:39:00.606Z,4.20
2017-10-16T05:41:29.631Z,3.60
2017-10-16T05:43:58.675Z,3.30
2017-10-16T05:46:27.698Z,2.90
2017-10-16T05:48:56.730Z,3.10
2017-10-16T05:51:25.766Z,3.20
2017-10-16T05:53:54.822Z,2.60
2017-10-16T05:56:23.852Z,2.77
2017-10-16T05:58:52.887Z,3.37
2017-10-16T06:01:21.945Z,3.30
2017-10-16T06:03:50.987Z,4.10
2017-10-16T06:06:20.048Z,3.57
2017-10-16T06:08:49.086Z,3.67
2017-10-16T06:11:18.137Z,5.60
2017-10-16T06:13:47.178Z,4.90
2017-10-16T06:16:16.325Z,5.37
2017-10-16T06:18:45.354Z,4.63
2017-10-16T06:21:14.390Z,3.57
2017-10-16T06:23:43.477Z,3.40
2017-10-16T06:26:12.525Z,3.23
2017-10-16T06:28:41.651Z,3.10
2017-10-16T06:31:10.753Z,3.30
2017-10-16T06:33:39.778Z,3.90
2017-10-16T06:36:09.051Z,3.30
2017-10-16T06:38:38.107Z,2.70
2017-10-16T06:41:07.131Z,2.90
2017-10-16T06:43:36.180Z,3.13
2017-10-16T06:46:05.219Z,2.40
2017-10-16T06:48:34.235Z,3.20
2017-10-16T06:51:03.259Z,2.83
2017-10-16T06:53:32.426Z,2.37
2017-10-16T06:56:01.473Z,2.30
2017-10-16T06:58:30.500Z,2.77
2017-10-16T07:00:59.570Z,2.23
2017-10-16T07:03:29.727Z,2.80
2017-10-16T07:05:58.763Z,1.97
2017-10-16T07:08:27.799Z,1.80
2017-10-16T07:10:57.098Z,1.63
2017-10-16T07:13:26.170Z,1.80
2017-10-16T07:15:55.416Z,2.10
2017-10-16T07:18:24.467Z,2.37
2017-10-16T07:20:53.514Z,2.20
2017-10-16T07:23:23.475Z,2.50
2017-10-16T07:25:52.526Z,2.60
2017-10-16T07:28:21.615Z,2.37
2017-10-16T07:30:50.658Z,2.87
2017-10-16T07:33:19.702Z,2.50
2017-10-16T07:35:49.733Z,2.67
2017-10-16T07:38:18.767Z,2.30
2017-10-16T07:40:48.494Z,2.10
2017-10-16T07:43:17.535Z,1.60
2017-10-16T07:45:46.643Z,1.03
2017-10-16T07:48:17.666Z,1.10
2017-10-16T07:50:46.676Z,1.50
2017-10-16T07:53:19.227Z,1.43
2017-10-16T07:55:53.628Z,1.57
2017-10-16T07:58:22.830Z,1.27
2017-10-16T08:00:51.887Z,1.70
2017-10-16T08:03:20.984Z,1.60
2017-10-16T08:05:50.008Z,1.97
2017-10-16T08:08:19.050Z,1.87
2017-10-16T08:10:48.099Z,1.50
2017-10-16T08:13:17.135Z,1.30
2017-10-16T08:15:46.181Z,1.83
2017-10-16T08:18:15.227Z,1.83
2017-10-16T08:20:44.779Z,1.67
2017-10-16T08:23:13.843Z,1.20
2017-10-16T08:25:42.880Z,1.67
2017-10-16T08:28:11.938Z,1.53
2017-10-16T08:30:40.991Z,2.00
2017-10-16T08:33:10.058Z,1.37
2017-10-16T08:35:39.100Z,1.30
2017-10-16T08:38:08.146Z,1.60
2017-10-16T08:40:37.196Z,2.00
2017-10-16T08:43:07.035Z,1.53
2017-10-16T08:45:36.319Z,1.37
2017-10-16T08:48:05.363Z,1.50
2017-10-16T08:50:34.422Z,1.73
2017-10-16T08:53:03.480Z,1.53
2017-10-16T08:55:32.531Z,1.77
2017-10-16T08:58:01.587Z,1.30
2017-10-16T09:00:33.169Z,1.10
2017-10-16T09:03:02.246Z,1.57
2017-10-16T09:05:31.311Z,1.27
2017-10-16T09:08:00.363Z,1.00
2017-10-16T09:10:29.472Z,1.20
2017-10-16T09:12:58.649Z,1.43
2017-10-16T09:15:31.075Z,1.40
2017-10-16T09:18:00.143Z,1.43
2017-10-16T09:20:29.187Z,1.23
2017-10-16T09:22:58.242Z,0.90
2017-10-16T09:25:27.290Z,1.10
2017-10-16T09:27:56.338Z,1.40
2017-10-16T09:30:25.382Z,1.13
2017-10-16T09:32:54.428Z,1.70
2017-10-16T09:35:23.497Z,1.83
2017-10-16T09:37:52.545Z,1.20
2017-10-16T09:40:21.578Z,1.43
2017-10-16T09:42:50.635Z,1.37
2017-10-16T09:45:19.704Z,1.47
2017-10-16T09:47:48.757Z,1.73
2017-10-16T09:50:17.807Z,1.50
2017-10-16T09:52:46.871Z,1.30
2017-10-16T09:55:15.914Z,1.90
2017-10-16T09:57:44.998Z,1.93
2017-10-16T10:00:14.051Z,1.50
2017-10-16T10:02:43.095Z,1.77
2017-10-16T10:05:12.166Z,2.00
2017-10-16T10:07:41.256Z,1.70
2017-10-16T10:10:10.347Z,1.87
2017-10-16T10:12:39.392Z,2.00
2017-10-16T10:15:08.507Z,2.00
2017-10-16T10:17:37.552Z,2.07
2017-10-16T10:20:06.604Z,2.63
2017-10-16T10:22:35.644Z,2.03
2017-10-16T10:25:04.729Z,2.20
2017-10-16T10:27:33.775Z,2.53
2017-10-16T10:30:02.820Z,2.10
2017-10-16T10:32:31.882Z,2.47
2017-10-16T10:35:00.954Z,3.00
2017-10-16T10:37:30.003Z,2.73
2017-10-16T10:39:59.051Z,2.70
2017-10-16T10:42:28.111Z,3.10
2017-10-16T10:44:57.148Z,2.50
2017-10-16T10:47:27.188Z,2.83
2017-10-16T10:49:56.243Z,2.78
2017-10-16T10:52:25.286Z,2.63
2017-10-16T10:54:54.349Z,2.60
2017-10-16T10:57:23.408Z,2.85
2017-10-16T10:59:52.446Z,2.95
2017-10-16T11:02:21.506Z,3.15
2017-10-16T11:04:50.618Z,2.62
2017-10-16T11:07:19.668Z,2.12
2017-10-16T11:09:48.716Z,2.22
2017-10-16T11:12:17.759Z,2.78
2017-10-16T11:14:46.823Z,2.60
2017-10-16T11:17:15.867Z,3.22
2017-10-16T11:19:44.931Z,2.78
2017-10-16T11:22:14.062Z,2.90
2017-10-16T11:24:43.117Z,2.80
2017-10-16T11:27:12.351Z,3.40
2017-10-16T11:29:41.389Z,3.10
2017-10-16T11:32:10.478Z,2.97
2017-10-16T11:34:39.537Z,3.00
2017-10-16T11:37:08.600Z,3.47
2017-10-16T11:39:37.647Z,3.23
2017-10-16T11:42:06.726Z,2.83
2017-10-16T11:44:35.787Z,3.25
2017-10-16T11:47:04.845Z,3.30
2017-10-16T11:49:33.891Z,3.10
2017-10-16T11:52:02.940Z,3.13
2017-10-16T11:54:32.745Z,3.50
2017-10-16T11:57:01.970Z,3.10
2017-10-16T11:59:31.029Z,3.00
2017-10-16T12:02:00.071Z,3.60
2017-10-16T12:04:29.127Z,3.27
2017-10-16T12:06:58.209Z,3.83
2017-10-16T12:09:27.270Z,3.30
2017-10-16T12:11:56.316Z,3.33
2017-10-16T12:14:25.376Z,3.30
2017-10-16T12:16:54.468Z,2.73
2017-10-16T12:19:23.503Z,3.47
2017-10-16T12:21:52.604Z,2.90
2017-10-16T12:24:21.667Z,3.27
2017-10-16T12:26:50.813Z,2.80
2017-10-16T12:29:19.876Z,3.87
2017-10-16T12:31:48.977Z,4.13
2017-10-16T12:34:18.003Z,3.07
2017-10-16T12:36:47.067Z,3.20
2017-10-16T12:39:16.130Z,3.77
2017-10-16T12:41:45.243Z,2.93
2017-10-16T12:44:14.264Z,3.53
2017-10-16T12:46:43.376Z,3.90
2017-10-16T12:49:12.431Z,3.43
2017-10-16T12:51:41.501Z,3.97
2017-10-16T12:54:10.955Z,3.20
2017-10-16T12:56:40.001Z,4.03
2017-10-16T12:59:09.038Z,3.63
2017-10-16T13:01:38.092Z,3.60
2017-10-16T13:04:07.182Z,3.60
2017-10-16T13:06:36.287Z,4.03
2017-10-16T13:09:06.323Z,3.90
2017-10-16T13:11:35.509Z,3.50
2017-10-16T13:14:04.552Z,3.17
2017-10-16T13:16:33.623Z,3.47
2017-10-16T13:19:02.664Z,3.30
2017-10-16T13:21:31.711Z,3.67
2017-10-16T13:24:00.811Z,3.10
2017-10-16T13:26:29.860Z,3.57
2017-10-16T13:28:58.977Z,3.67
2017-10-16T13:31:27.996Z,3.77
2017-10-16T13:33:57.042Z,3.97
2017-10-16T13:36:26.088Z,3.53
2017-10-16T13:38:55.139Z,3.20
2017-10-16T13:41:24.194Z,3.73
2017-10-16T13:43:53.238Z,3.63
2017-10-16T13:46:22.371Z,3.20
2017-10-16T13:48:51.475Z,3.50
2017-10-16T13:51:20.515Z,3.30
2017-10-16T13:53:49.586Z,3.47
2017-10-16T13:56:18.630Z,3.00
2017-10-16T13:58:47.727Z,3.77
2017-10-16T14:01:16.774Z,3.57
2017-10-16T14:03:45.814Z,3.73
2017-10-16T14:06:14.857Z,3.77
2017-10-16T14:08:44.075Z,3.93
2017-10-16T14:11:13.271Z,3.50
2017-10-16T14:13:42.317Z,4.10
2017-10-16T14:16:11.352Z,3.00
2017-10-16T14:18:40.468Z,3.53
2017-10-16T14:21:09.519Z,4.10
2017-10-16T14:23:38.691Z,4.53
2017-10-16T14:26:07.789Z,3.43
2017-10-16T14:28:36.927Z,3.90
2017-10-16T14:31:05.983Z,3.90
2017-10-16T14:33:35.027Z,3.90
2017-10-16T14:36:04.092Z,4.13
2017-10-16T14:38:33.206Z,4.70
2017-10-16T14:41:02.344Z,3.80
2017-10-16T14:43:31.392Z,3.63
2017-10-16T14:46:00.430Z,4.03
2017-10-16T14:48:29.539Z,4.10
2017-10-16T14:50:58.583Z,5.07
2017-10-16T14:53:27.660Z,4.80
2017-10-16T14:55:56.719Z,4.67
2017-10-16T14:58:25.773Z,4.60
2017-10-16T15:00:54.867Z,4.60
2017-10-16T15:03:23.916Z,4.60
2017-10-16T15:05:59.448Z,5.20
2017-10-16T15:08:28.878Z,4.80
2017-10-16T15:10:57.930Z,5.40
2017-10-16T15:13:27.102Z,5.43
2017-10-16T15:15:56.156Z,5.00
2017-10-16T15:18:25.261Z,5.10
2017-10-16T15:20:54.439Z,4.73
2017-10-16T15:23:23.532Z,5.20
2017-10-16T15:25:52.603Z,5.20
2017-10-16T15:28:21.678Z,4.10
2017-10-16T15:30:50.737Z,4.90
2017-10-16T15:33:19.825Z,4.30
2017-10-16T15:35:48.860Z,5.70
2017-10-16T15:38:17.928Z,4.33
2017-10-16T15:40:46.967Z,5.57
2017-10-16T15:43:16.011Z,4.70
2017-10-16T15:45:45.079Z,5.10
2017-10-16T15:48:14.174Z,5.20
2017-10-16T15:50:43.232Z,5.13
2017-10-16T15:53:12.266Z,5.40
2017-10-16T15:55:41.308Z,4.43
2017-10-16T15:58:10.352Z,4.47
2017-10-16T16:00:39.407Z,4.80
2017-10-16T16:03:08.470Z,4.97
2017-10-16T16:05:37.515Z,5.17
2017-10-16T16:08:06.563Z,5.30
2017-10-16T16:10:35.611Z,5.00
2017-10-16T16:13:04.707Z,4.20
2017-10-16T16:15:34.907Z,4.97
2017-10-16T16:18:03.937Z,4.30
2017-10-16T16:20:32.998Z,4.57
2017-10-16T16:23:02.035Z,4.87
2017-10-16T16:25:31.122Z,5.47
2017-10-16T16:28:00.170Z,4.47
2017-10-16T16:30:29.281Z,5.13
2017-10-16T16:32:58.331Z,5.40
2017-10-16T16:35:27.608Z,5.27
2017-10-16T16:37:56.647Z,5.17
2017-10-16T16:40:25.767Z,5.13
2017-10-16T16:42:54.821Z,4.70
2017-10-16T16:45:23.855Z,4.63
2017-10-16T16:47:52.955Z,5.27
2017-10-16T16:50:21.980Z,5.30
2017-10-16T16:52:51.019Z,4.93
2017-10-16T16:55:20.144Z,5.07
2017-10-16T16:57:50.210Z,5.40
2017-10-16T17:00:19.245Z,5.70
2017-10-16T17:02:48.319Z,5.30
2017-10-16T17:05:17.367Z,5.20
2017-10-16T17:07:46.439Z,5.60
2017-10-16T17:10:15.519Z,5.70
2017-10-16T17:12:44.943Z,6.77
2017-10-16T17:15:14.009Z,5.40
2017-10-16T17:17:43.031Z,5.93
2017-10-16T17:20:12.107Z,7.23
2017-10-16T17:22:41.147Z,7.60
2017-10-16T17:25:10.195Z,9.47
2017-10-16T17:27:39.250Z,9.27
2017-10-16T17:30:08.347Z,8.40
2017-10-16T17:32:37.411Z,9.30
2017-10-16T17:35:06.462Z,7.80
2017-10-16T17:37:35.517Z,8.37
2017-10-16T17:40:04.567Z,9.47
2017-10-16T17:42:33.622Z,8.20
2017-10-16T17:45:02.667Z,8.00
2017-10-16T17:47:31.759Z,8.80
2017-10-16T17:50:00.807Z,9.33
2017-10-16T17:52:29.869Z,9.10
2017-10-16T17:54:58.971Z,8.50
2017-10-16T17:57:28.040Z,8.23
2017-10-16T17:59:57.112Z,7.00
2017-10-16T18:02:26.176Z,6.73
2017-10-16T18:04:55.301Z,6.80
2017-10-16T18:07:24.372Z,7.40
2017-10-16T18:09:53.533Z,7.20
2017-10-16T18:12:22.582Z,7.20
2017-10-16T18:14:52.787Z,6.97
2017-10-16T18:17:22.291Z,6.90
2017-10-16T18:19:51.452Z,6.87
2017-10-16T18:22:20.572Z,6.73
2017-10-16T18:24:49.978Z,6.33
2017-10-16T18:27:18.999Z,5.90
2017-10-16T18:29:48.083Z,5.83
2017-10-16T18:32:17.119Z,5.03
2017-10-16T18:34:47.199Z,6.00
2017-10-16T18:37:17.155Z,5.80
2017-10-16T18:39:47.065Z,7.53
2017-10-16T18:42:16.581Z,6.10
2017-10-16T18:44:45.713Z,6.17
2017-10-16T18:47:14.904Z,6.37
2017-10-16T18:49:44.713Z,6.13
2017-10-16T18:52:14.084Z,6.43
2017-10-16T18:54:46.225Z,6.70
2017-10-16T18:57:20.901Z,6.57
2017-10-16T18:59:55.809Z,7.03
2017-10-16T19:02:32.744Z,7.03
2017-10-16T19:05:08.681Z,7.73
2017-10-16T19:07:43.746Z,8.00
2017-10-16T19:10:20.248Z,8.03
2017-10-16T19:12:55.484Z,8.20
2017-10-16T19:15:29.987Z,10.33
2017-10-16T19:18:02.592Z,9.43
2017-10-16T19:20:35.460Z,8.50
2017-10-16T19:23:05.052Z,8.20
2017-10-16T19:25:34.954Z,7.90
2017-10-16T19:28:04.521Z,7.50
2017-10-16T19:30:40.295Z,7.33
2017-10-16T19:33:11.028Z,7.80
2017-10-16T19:35:40.759Z,6.63
2017-10-16T19:38:13.610Z,6.87
2017-10-16T19:40:43.262Z,6.60
2017-10-16T19:43:12.323Z,7.90
2017-10-16T19:45:41.395Z,6.37
2017-10-16T19:48:10.752Z,7.10
2017-10-16T19:50:39.799Z,5.63
2017-10-16T19:53:09.071Z,6.60
2017-10-16T19:55:38.167Z,6.43
2017-10-16T19:58:07.271Z,5.60
2017-10-16T20:00:36.516Z,6.13
2017-10-16T20:03:05.574Z,8.03
2017-10-16T20:05:37.560Z,7.00
2017-10-16T20:08:09.644Z,7.30
2017-10-16T20:10:43.861Z,6.67
2017-10-16T20:13:16.711Z,5.60
2017-10-16T20:15:49.141Z,5.90
2017-10-16T20:18:21.240Z,6.97
2017-10-16T20:20:53.721Z,6.20
2017-10-16T20:23:25.108Z,6.20
2017-10-16T20:25:57.097Z,8.03
2017-10-16T20:28:28.886Z,7.43
2017-10-16T20:30:59.760Z,6.57
2017-10-16T20:33:32.409Z,7.90
2017-10-16T20:36:04.286Z,6.73
2017-10-16T20:38:36.468Z,7.97
2017-10-16T20:41:09.150Z,6.90
2017-10-16T20:43:42.842Z,7.07
2017-10-16T20:46:13.133Z,6.97
2017-10-16T20:48:42.183Z,7.80
2017-10-16T20:51:11.236Z,7.37
2017-10-16T20:53:40.366Z,7.77
2017-10-16T20:56:12.439Z,7.97
2017-10-16T20:58:47.002Z,8.30
2017-10-16T21:01:18.750Z,6.93
2017-10-16T21:03:50.605Z,8.13
2017-10-16T21:06:22.677Z,6.57
2017-10-16T21:08:56.556Z,7.73
2017-10-16T21:11:28.995Z,6.77
2017-10-16T21:14:01.150Z,7.10
2017-10-16T21:16:33.179Z,7.37
2017-10-16T21:19:06.981Z,5.80
2017-10-16T21:21:39.462Z,6.63
2017-10-16T21:24:13.216Z,5.60
2017-10-16T21:26:46.429Z,7.07
2017-10-16T21:29:21.362Z,7.03
2017-10-16T21:31:55.573Z,6.20
2017-10-16T21:34:28.665Z,5.80
2017-10-16T21:37:02.370Z,6.13
2017-10-16T21:39:36.334Z,5.83
2017-10-16T21:42:11.779Z,6.37
2017-10-16T21:44:41.607Z,5.70
2017-10-16T21:47:10.642Z,6.50
2017-10-16T21:49:39.681Z,6.90
2017-10-16T21:52:08.770Z,7.60
2017-10-16T21:54:37.966Z,7.40
2017-10-16T21:57:07.166Z,8.40
2017-10-16T21:59:36.282Z,7.50
2017-10-16T22:02:05.389Z,6.63
2017-10-16T22:04:34.594Z,6.30
2017-10-16T22:07:03.829Z,6.57
2017-10-16T22:09:33.001Z,7.10
2017-10-16T22:12:02.178Z,6.57
2017-10-16T22:14:31.283Z,7.40
2017-10-16T22:17:00.548Z,6.67
2017-10-16T22:19:30.008Z,7.10
2017-10-16T22:21:59.323Z,5.87
2017-10-16T22:24:28.656Z,6.80
2017-10-16T22:26:57.977Z,6.57
2017-10-16T22:29:27.609Z,6.90
2017-10-16T22:31:56.906Z,8.50
2017-10-16T22:34:26.196Z,8.20
2017-10-16T22:36:55.244Z,8.07
2017-10-16T22:39:24.310Z,7.80
2017-10-16T22:41:53.553Z,7.53
2017-10-16T22:44:22.854Z,6.80
2017-10-16T22:46:52.119Z,5.50
2017-10-16T22:49:21.427Z,6.23
2017-10-16T22:51:50.747Z,6.23
2017-10-16T22:54:37.984Z,5.70
2017-10-16T22:57:07.115Z,6.30
2017-10-16T22:59:36.154Z,5.60
2017-10-16T23:02:05.189Z,5.93
2017-10-16T23:04:34.372Z,6.53
2017-10-16T23:07:03.402Z,6.20
2017-10-16T23:09:32.435Z,6.20
2017-10-16T23:12:01.484Z,6.80
2017-10-16T23:14:30.557Z,6.03
2017-10-16T23:16:59.585Z,6.80
2017-10-16T23:19:28.642Z,6.30
2017-10-16T23:21:57.670Z,6.30
2017-10-16T23:24:26.710Z,6.90
2017-10-16T23:26:55.743Z,6.20
2017-10-16T23:29:25.738Z,6.20
2017-10-16T23:31:54.814Z,6.03
2017-10-16T23:34:23.843Z,7.27
2017-10-16T23:36:52.876Z,6.20
2017-10-16T23:39:22.015Z,6.20
2017-10-16T23:41:51.043Z,6.60
2017-10-16T23:44:20.145Z,5.67
2017-10-16T23:46:49.196Z,6.07
2017-10-16T23:49:18.242Z,5.70
2017-10-16T23:51:47.275Z,8.43
2017-10-16T23:54:16.354Z,12.87
2017-10-16T23:56:46.284Z,8.60
2017-10-16T23:59:15.346Z,7.30
